메인 페이지
METAR-TAF:

METAR-TAF

공항 :

Guthrie, 오클라호마, 미국

위도: 35-51-07N, 경도: 097-24-27W, 고도: 327m

현재 날씨관측

예보는 49분 전, 18:53시(UTC)에 발표되었습니다.
여러 방향의 바람 6kt
온도 13°C
습도 67%
기압 1018 hPa
시정: 16.1km
고도 5000ft 상공 흐림

METAR: KGOK 051853Z AUTO VRB06KT 10SM OVC050 13/07 A3006 RMK AO2 SLP183 T01330067

시각: 14:42 (19:42 UTC)


TAF: 누락

4,000개 이상의 공항 관측 자료 및 예보 (METAR 및 TAF 보고).

지도상에서 검색 가능한 기상관측소가 노란 점과 빨간 점으로 표시되어 있습니다.

기상관측소 명을 보려면 표시 위로 마우스를 이동하세요.

날씨 관측과 예보를 보려면 클릭하세요.

지도 변경 : 확대하려면 엑스 표시가 있는 녹색 버튼, 축소하려면 빼기 표시가 있는 녹색 버튼, 다음 페이지의 지도를 보려면 녹색 화살표를 클릭하세요.


METAR-TAF: